sensor_id;sensor_type;location;lat;lon;timestamp;pressure;altitude;pressure_sealevel;temperature;humidity
55351;BME280;62194;49.480;10.986;2023-02-12T00:00:07;100179.34;;;4.45;85.02
55351;BME280;62194;49.480;10.986;2023-02-12T00:00:13;100176.91;;;4.43;85.21
55351;BME280;62194;49.480;10.986;2023-02-12T00:00:20;100177.72;;;4.44;85.41
55351;BME280;62194;49.480;10.986;2023-02-12T00:00:25;100184.75;;;4.45;85.23
55351;BME280;62194;49.480;10.986;2023-02-12T00:00:30;100176.91;;;4.43;85.00
55351;BME280;62194;49.480;10.986;2023-02-12T00:00:36;100185.56;;;4.45;84.83
55351;BME280;62194;49.480;10.986;2023-02-12T00:00:43;100177.19;;;4.47;85.08
55351;BME280;62194;49.480;10.986;2023-02-12T00:00:49;100177.47;;;4.45;85.24
55351;BME280;62194;49.480;10.986;2023-02-12T00:00:54;100173.13;;;4.44;84.88
55351;BME280;62194;49.480;10.986;2023-02-12T00:00:59;100180.16;;;4.45;84.80
55351;BME280;62194;49.480;10.986;2023-02-12T00:01:11;100183.16;;;4.49;84.91
55351;BME280;62194;49.480;10.986;2023-02-12T00:01:18;100184.78;;;4.50;84.90
55351;BME280;62194;49.480;10.986;2023-02-12T00:01:24;100183.97;;;4.50;84.87
55351;BME280;62194;49.480;10.986;2023-02-12T00:01:30;100183.16;;;4.49;84.74
55351;BME280;62194;49.480;10.986;2023-02-12T00:01:35;100174.75;;;4.45;84.78
55351;BME280;62194;49.480;10.986;2023-02-12T00:01:41;100171.25;;;4.45;84.40
55351;BME280;62194;49.480;10.986;2023-02-12T00:01:46;100174.50;;;4.47;84.93
55351;BME280;62194;49.480;10.986;2023-02-12T00:01:51;100172.31;;;4.44;84.84
55351;BME280;62194;49.480;10.986;2023-02-12T00:01:57;100179.09;;;4.46;84.96
55351;BME280;62194;49.480;10.986;2023-02-12T00:02:02;100182.34;;;4.49;84.87
55351;BME280;62194;49.480;10.986;2023-02-12T00:02:08;100180.72;;;4.47;84.84
55351;BME280;62194;49.480;10.986;2023-02-12T00:02:14;100172.31;;;4.44;84.97
55351;BME280;62194;49.480;10.986;2023-02-12T00:02:20;100180.97;;;4.46;85.29
55351;BME280;62194;49.480;10.986;2023-02-12T00:02:25;100175.81;;;4.44;85.14
55351;BME280;62194;49.480;10.986;2023-02-12T00:02:31;100183.09;;;4.44;85.32
55351;BME280;62194;49.480;10.986;2023-02-12T00:02:36;100185.00;;;4.43;85.34
55351;BME280;62194;49.480;10.986;2023-02-12T00:02:41;100187.69;;;4.43;85.16
55351;BME280;62194;49.480;10.986;2023-02-12T00:02:47;100176.34;;;4.41;85.17
55351;BME280;62194;49.480;10.986;2023-02-12T00:02:52;100185.00;;;4.43;85.54
55351;BME280;62194;49.480;10.986;2023-02-12T00:02:57;100189.59;;;4.43;85.23
55351;BME280;62194;49.480;10.986;2023-02-12T00:03:03;100181.75;;;4.41;85.25
55351;BME280;62194;49.480;10.986;2023-02-12T00:03:08;100182.81;;;4.40;85.66
55351;BME280;62194;49.480;10.986;2023-02-12T00:03:14;100183.63;;;4.41;85.34
55351;BME280;62194;49.480;10.986;2023-02-12T00:03:22;100178.50;;;4.39;85.59
55351;BME280;62194;49.480;10.986;2023-02-12T00:03:27;100177.91;;;4.37;85.66
55351;BME280;62194;49.480;10.986;2023-02-12T00:03:32;100179.81;;;4.37;85.50
55351;BME280;62194;49.480;10.986;2023-02-12T00:03:41;100187.41;;;4.40;85.63
55351;BME280;62194;49.480;10.986;2023-02-12T00:03:46;100183.09;;;4.39;85.80
55351;BME280;62194;49.480;10.986;2023-02-12T00:03:52;100182.81;;;4.40;85.67
55351;BME280;62194;49.480;10.986;2023-02-12T00:03:57;100184.47;;;4.41;85.56
55351;BME280;62194;49.480;10.986;2023-02-12T00:04:03;100179.28;;;4.40;85.40
55351;BME280;62194;49.480;10.986;2023-02-12T00:04:08;100173.31;;;4.38;85.61
55351;BME280;62194;49.480;10.986;2023-02-12T00:04:13;100180.91;;;4.41;85.39
55351;BME280;62194;49.480;10.986;2023-02-12T00:04:20;100174.41;;;4.37;85.18
55351;BME280;62194;49.480;10.986;2023-02-12T00:04:25;100183.63;;;4.41;85.20
55351;BME280;62194;49.480;10.986;2023-02-12T00:04:31;100174.16;;;4.38;85.54
55351;BME280;62194;49.480;10.986;2023-02-12T00:04:36;100184.19;;;4.43;85.42
55351;BME280;62194;49.480;10.986;2023-02-12T00:04:42;100176.59;;;4.40;85.22
55351;BME280;62194;49.480;10.986;2023-02-12T00:04:48;100182.56;;;4.42;85.36
55351;BME280;62194;49.480;10.986;2023-02-12T00:04:53;100183.38;;;4.42;85.36
55351;BME280;62194;49.480;10.986;2023-02-12T00:04:58;100185.28;;;4.42;85.53
55351;BME280;62194;49.480;10.986;2023-02-12T00:05:04;100182.28;;;4.43;85.23
55351;BME280;62194;49.480;10.986;2023-02-12T00:05:09;100179.06;;;4.41;85.39
55351;BME280;62194;49.480;10.986;2023-02-12T00:05:15;100182.28;;;4.43;85.47
55351;BME280;62194;49.480;10.986;2023-02-12T00:05:20;100172.28;;;4.39;85.73
55351;BME280;62194;49.480;10.986;2023-02-12T00:05:25;100169.81;;;4.37;85.34
55351;BME280;62194;49.480;10.986;2023-02-12T00:05:31;100184.19;;;4.43;85.43
55351;BME280;62194;49.480;10.986;2023-02-12T00:05:38;100185.56;;;4.45;85.37
55351;BME280;62194;49.480;10.986;2023-02-12T00:05:44;100175.28;;;4.42;85.56
55351;BME280;62194;49.480;10.986;2023-02-12T00:05:49;100173.38;;;4.43;85.56
55351;BME280;62194;49.480;10.986;2023-02-12T00:05:59;100179.59;;;4.43;85.62
55351;BME280;62194;49.480;10.986;2023-02-12T00:06:06;100179.28;;;4.40;85.80
55351;BME280;62194;49.480;10.986;2023-02-12T00:06:11;100186.06;;;4.42;85.93
55351;BME280;62194;49.480;10.986;2023-02-12T00:06:17;100183.09;;;4.44;85.56
55351;BME280;62194;49.480;10.986;2023-02-12T00:06:22;100182.56;;;4.42;85.67
55351;BME280;62194;49.480;10.986;2023-02-12T00:06:28;100181.75;;;4.41;85.64
55351;BME280;62194;49.480;10.986;2023-02-12T00:06:33;100180.69;;;4.42;85.59
55351;BME280;62194;49.480;10.986;2023-02-12T00:06:39;100183.38;;;4.42;85.72
55351;BME280;62194;49.480;10.986;2023-02-12T00:06:44;100184.47;;;4.41;86.01
55351;BME280;62194;49.480;10.986;2023-02-12T00:06:49;100179.28;;;4.40;85.67
55351;BME280;62194;49.480;10.986;2023-02-12T00:06:54;100180.91;;;4.41;85.98
55351;BME280;62194;49.480;10.986;2023-02-12T00:07:00;100179.06;;;4.41;85.87
55351;BME280;62194;49.480;10.986;2023-02-12T00:07:05;100183.38;;;4.42;85.48
55351;BME280;62194;49.480;10.986;2023-02-12T00:07:11;100181.22;;;4.44;85.84
55351;BME280;62194;49.480;10.986;2023-02-12T00:07:16;100182.88;;;4.45;85.46
55351;BME280;62194;49.480;10.986;2023-02-12T00:07:21;100176.91;;;4.43;85.54
55351;BME280;62194;49.480;10.986;2023-02-12T00:07:30;100185.56;;;4.45;85.72
55351;BME280;62194;49.480;10.986;2023-02-12T00:07:35;100173.66;;;4.41;85.81
55351;BME280;62194;49.480;10.986;2023-02-12T00:07:41;100182.06;;;4.45;85.66
55351;BME280;62194;49.480;10.986;2023-02-12T00:07:46;100182.59;;;4.47;85.34
55351;BME280;62194;49.480;10.986;2023-02-12T00:07:52;100181.28;;;4.50;85.51
55351;BME280;62194;49.480;10.986;2023-02-12T00:07:57;100176.94;;;4.49;85.32
55351;BME280;62194;49.480;10.986;2023-02-12T00:08:03;100172.88;;;4.46;85.19
55351;BME280;62194;49.480;10.986;2023-02-12T00:08:09;100176.69;;;4.50;85.51
55351;BME280;62194;49.480;10.986;2023-02-12T00:08:16;100184.53;;;4.52;85.38
55351;BME280;62194;49.480;10.986;2023-02-12T00:08:21;100181.00;;;4.51;85.28
55351;BME280;62194;49.480;10.986;2023-02-12T00:08:27;100179.38;;;4.50;85.32
55351;BME280;62194;49.480;10.986;2023-02-12T00:08:32;100172.06;;;4.45;85.41
55351;BME280;62194;49.480;10.986;2023-02-12T00:08:38;100180.72;;;4.47;85.27
55351;BME280;62194;49.480;10.986;2023-02-12T00:08:43;100176.94;;;4.49;85.46
55351;BME280;62194;49.480;10.986;2023-02-12T00:08:50;100173.44;;;4.48;85.20
55351;BME280;62194;49.480;10.986;2023-02-12T00:08:56;100173.16;;;4.50;85.14
55351;BME280;62194;49.480;10.986;2023-02-12T00:09:02;100170.97;;;4.46;85.18
55351;BME280;62194;49.480;10.986;2023-02-12T00:09:07;100173.75;;;4.52;85.33
55351;BME280;62194;49.480;10.986;2023-02-12T00:09:13;100177.75;;;4.49;85.24
55351;BME280;62194;49.480;10.986;2023-02-12T00:09:18;100164.78;;;4.51;84.89
55351;BME280;62194;49.480;10.986;2023-02-12T00:09:23;100173.16;;;4.50;85.02
55351;BME280;62194;49.480;10.986;2023-02-12T00:09:28;100174.28;;;4.54;85.01
55351;BME280;62194;49.480;10.986;2023-02-12T00:09:35;100173.22;;;4.55;85.08
55351;BME280;62194;49.480;10.986;2023-02-12T00:09:40;100171.34;;;4.55;84.86
55351;BME280;62194;49.480;10.986;2023-02-12T00:09:45;100170.53;;;4.55;85.14
55351;BME280;62194;49.480;10.986;2023-02-12T00:09:51;100161.03;;;4.52;84.87
55351;BME280;62194;49.480;10.986;2023-02-12T00:09:56;100170.00;;;4.58;84.87
55351;BME280;62194;49.480;10.986;2023-02-12T00:10:01;100166.44;;;4.52;84.80
55351;BME280;62194;49.480;10.986;2023-02-12T00:10:07;100179.44;;;4.55;84.78
55351;BME280;62194;49.480;10.986;2023-02-12T00:10:13;100186.22;;;4.58;84.87
55351;BME280;62194;49.480;10.986;2023-02-12T00:10:20;100172.72;;;4.58;84.74
55351;BME280;62194;49.480;10.986;2023-02-12T00:10:25;100175.66;;;4.56;84.56
55351;BME280;62194;49.480;10.986;2023-02-12T00:10:30;100175.94;;;4.55;84.69
55351;BME280;62194;49.480;10.986;2023-02-12T00:10:39;100179.44;;;4.55;84.65
55351;BME280;62194;49.480;10.986;2023-02-12T00:10:45;100177.25;;;4.52;85.13
55351;BME280;62194;49.480;10.986;2023-02-12T00:10:50;100179.94;;;4.52;85.07
55351;BME280;62194;49.480;10.986;2023-02-12T00:10:55;100183.47;;;4.53;84.94
55351;BME280;62194;49.480;10.986;2023-02-12T00:11:12;100169.97;;;4.53;84.90
55351;BME280;62194;49.480;10.986;2023-02-12T00:11:22;100179.69;;;4.54;85.31
55351;BME280;62194;49.480;10.986;2023-02-12T00:11:28;100174.84;;;4.56;84.82
55351;BME280;62194;49.480;10.986;2023-02-12T00:11:34;100175.09;;;4.54;85.22
55351;BME280;62194;49.480;10.986;2023-02-12T00:11:40;100170.78;;;4.53;84.95
55351;BME280;62194;49.480;10.986;2023-02-12T00:11:45;100175.41;;;4.58;84.98
55351;BME280;62194;49.480;10.986;2023-02-12T00:11:51;100174.03;;;4.55;84.65
55351;BME280;62194;49.480;10.986;2023-02-12T00:11:56;100174.84;;;4.56;84.50
55351;BME280;62194;49.480;10.986;2023-02-12T00:12:02;100187.84;;;4.59;84.77
55351;BME280;62194;49.480;10.986;2023-02-12T00:12:07;100177.03;;;4.59;84.72
55351;BME280;62194;49.480;10.986;2023-02-12T00:12:12;100171.56;;;4.54;84.52
55351;BME280;62194;49.480;10.986;2023-02-12T00:12:17;100165.63;;;4.52;84.85
55351;BME280;62194;49.480;10.986;2023-02-12T00:12:23;100181.88;;;4.57;84.76
55351;BME280;62194;49.480;10.986;2023-02-12T00:12:28;100176.75;;;4.55;84.65
55351;BME280;62194;49.480;10.986;2023-02-12T00:12:36;100170.78;;;4.53;84.85
55351;BME280;62194;49.480;10.986;2023-02-12T00:12:41;100179.75;;;4.59;84.74
55351;BME280;62194;49.480;10.986;2023-02-12T00:12:47;100178.66;;;4.60;84.62
55351;BME280;62194;49.480;10.986;2023-02-12T00:12:53;100177.84;;;4.59;84.45
55351;BME280;62194;49.480;10.986;2023-02-12T00:12:58;100178.41;;;4.61;84.78
55351;BME280;62194;49.480;10.986;2023-02-12T00:13:03;100177.56;;;4.61;84.62
55351;BME280;62194;49.480;10.986;2023-02-12T00:13:10;100176.75;;;4.60;84.54
55351;BME280;62194;49.480;10.986;2023-02-12T00:13:15;100172.16;;;4.56;84.68
55351;BME280;62194;49.480;10.986;2023-02-12T00:13:22;100166.47;;;4.57;84.20
55351;BME280;62194;49.480;10.986;2023-02-12T00:13:30;100171.34;;;4.60;84.52
55351;BME280;62194;49.480;10.986;2023-02-12T00:13:35;100171.34;;;4.60;84.51
55351;BME280;62194;49.480;10.986;2023-02-12T00:13:41;100170.81;;;4.58;84.65
55351;BME280;62194;49.480;10.986;2023-02-12T00:13:46;100177.56;;;4.61;84.47
55351;BME280;62194;49.480;10.986;2023-02-12T00:13:52;100178.41;;;4.61;84.57
55351;BME280;62194;49.480;10.986;2023-02-12T00:13:58;100181.13;;;4.61;84.67
55351;BME280;62194;49.480;10.986;2023-02-12T00:14:03;100180.28;;;4.61;84.93
55351;BME280;62194;49.480;10.986;2023-02-12T00:14:09;100172.72;;;4.58;84.84
55351;BME280;62194;49.480;10.986;2023-02-12T00:14:15;100176.22;;;4.58;84.72
55351;BME280;62194;49.480;10.986;2023-02-12T00:14:20;100175.13;;;4.59;84.60
55351;BME280;62194;49.480;10.986;2023-02-12T00:14:25;100173.53;;;4.58;84.61
55351;BME280;62194;49.480;10.986;2023-02-12T00:14:31;100176.22;;;4.58;84.64
55351;BME280;62194;49.480;10.986;2023-02-12T00:14:36;100175.41;;;4.58;84.80
55351;BME280;62194;49.480;10.986;2023-02-12T00:14:42;100173.22;;;4.55;84.61
55351;BME280;62194;49.480;10.986;2023-02-12T00:14:47;100174.03;;;4.55;84.58
55351;BME280;62194;49.480;10.986;2023-02-12T00:14:52;100174.84;;;4.56;84.84
55351;BME280;62194;49.480;10.986;2023-02-12T00:14:58;100187.28;;;4.57;84.85
55351;BME280;62194;49.480;10.986;2023-02-12T00:15:03;100174.28;;;4.54;84.96
55351;BME280;62194;49.480;10.986;2023-02-12T00:15:08;100174.84;;;4.56;84.92
55351;BME280;62194;49.480;10.986;2023-02-12T00:15:14;100172.09;;;4.51;84.90
55351;BME280;62194;49.480;10.986;2023-02-12T00:15:20;100182.13;;;4.55;84.88
55351;BME280;62194;49.480;10.986;2023-02-12T00:15:25;100185.38;;;4.57;85.18
55351;BME280;62194;49.480;10.986;2023-02-12T00:15:30;100179.69;;;4.54;85.23
55351;BME280;62194;49.480;10.986;2023-02-12T00:15:40;100187.03;;;4.58;84.97
55351;BME280;62194;49.480;10.986;2023-02-12T00:15:46;100174.84;;;4.56;85.02
55351;BME280;62194;49.480;10.986;2023-02-12T00:15:51;100181.34;;;4.55;85.02
55351;BME280;62194;49.480;10.986;2023-02-12T00:15:56;100178.88;;;4.53;85.11
55351;BME280;62194;49.480;10.986;2023-02-12T00:16:16;100184.03;;;4.55;84.99
55351;BME280;62194;49.480;10.986;2023-02-12T00:16:25;100173.16;;;4.50;85.14
55351;BME280;62194;49.480;10.986;2023-02-12T00:16:30;100172.91;;;4.51;85.19
55351;BME280;62194;49.480;10.986;2023-02-12T00:16:36;100178.31;;;4.51;85.42
55351;BME280;62194;49.480;10.986;2023-02-12T00:16:41;100182.94;;;4.56;85.21
55351;BME280;62194;49.480;10.986;2023-02-12T00:16:47;100178.63;;;4.55;85.44
55351;BME280;62194;49.480;10.986;2023-02-12T00:16:52;100178.88;;;4.53;85.11
55351;BME280;62194;49.480;10.986;2023-02-12T00:16:57;100180.75;;;4.53;85.29
55351;BME280;62194;49.480;10.986;2023-02-12T00:17:03;100188.34;;;4.56;85.30
55351;BME280;62194;49.480;10.986;2023-02-12T00:17:08;100176.47;;;4.57;84.96
55351;BME280;62194;49.480;10.986;2023-02-12T00:17:13;100181.63;;;4.58;85.22
55351;BME280;62194;49.480;10.986;2023-02-12T00:17:18;100177.78;;;4.54;85.26
55351;BME280;62194;49.480;10.986;2023-02-12T00:17:27;100171.56;;;4.54;85.31
55351;BME280;62194;49.480;10.986;2023-02-12T00:17:32;100174.28;;;4.54;85.25
55351;BME280;62194;49.480;10.986;2023-02-12T00:17:37;100177.78;;;4.54;85.04
55351;BME280;62194;49.480;10.986;2023-02-12T00:17:42;100182.69;;;4.57;84.97
55351;BME280;62194;49.480;10.986;2023-02-12T00:17:48;100168.06;;;4.53;84.97
55351;BME280;62194;49.480;10.986;2023-02-12T00:17:53;100172.16;;;4.56;84.86
55351;BME280;62194;49.480;10.986;2023-02-12T00:17:58;100169.97;;;4.53;84.85
55351;BME280;62194;49.480;10.986;2023-02-12T00:18:03;100182.16;;;4.60;85.11
55351;BME280;62194;49.480;10.986;2023-02-12T00:18:09;100177.84;;;4.59;84.94
55351;BME280;62194;49.480;10.986;2023-02-12T00:18:15;100179.75;;;4.59;84.91
55351;BME280;62194;49.480;10.986;2023-02-12T00:18:20;100180.03;;;4.62;85.22
55351;BME280;62194;49.480;10.986;2023-02-12T00:18:25;100172.44;;;4.59;84.88
55351;BME280;62194;49.480;10.986;2023-02-12T00:18:30;100171.94;;;4.62;84.58
55351;BME280;62194;49.480;10.986;2023-02-12T00:18:36;100181.41;;;4.65;84.93
55351;BME280;62194;49.480;10.986;2023-02-12T00:18:43;100177.91;;;4.64;84.74
55351;BME280;62194;49.480;10.986;2023-02-12T00:18:51;100178.94;;;4.63;84.78
55351;BME280;62194;49.480;10.986;2023-02-12T00:18:58;100180.84;;;4.63;84.70
55351;BME280;62194;49.480;10.986;2023-02-12T00:19:04;100175.13;;;4.59;84.51
55351;BME280;62194;49.480;10.986;2023-02-12T00:19:09;100176.22;;;4.58;84.64
55351;BME280;62194;49.480;10.986;2023-02-12T00:19:14;100172.44;;;4.59;84.54
55351;BME280;62194;49.480;10.986;2023-02-12T00:19:20;100174.34;;;4.59;84.55
55351;BME280;62194;49.480;10.986;2023-02-12T00:19:25;100176.75;;;4.60;84.69
55351;BME280;62194;49.480;10.986;2023-02-12T00:19:30;100172.72;;;4.58;84.84
55351;BME280;62194;49.480;10.986;2023-02-12T00:19:36;100172.16;;;4.56;84.82
55351;BME280;62194;49.480;10.986;2023-02-12T00:19:41;100168.63;;;4.55;85.15
55351;BME280;62194;49.480;10.986;2023-02-12T00:19:46;100178.94;;;4.58;84.96
55351;BME280;62194;49.480;10.986;2023-02-12T00:19:52;100174.56;;;4.57;85.08
55351;BME280;62194;49.480;10.986;2023-02-12T00:19:58;100178.13;;;4.58;85.39
55351;BME280;62194;49.480;10.986;2023-02-12T00:20:03;100171.88;;;4.57;85.35
55351;BME280;62194;49.480;10.986;2023-02-12T00:20:09;100178.13;;;4.58;85.06
55351;BME280;62194;49.480;10.986;2023-02-12T00:20:15;100174.56;;;4.57;85.10
55351;BME280;62194;49.480;10.986;2023-02-12T00:20:20;100180.53;;;4.59;85.01
55351;BME280;62194;49.480;10.986;2023-02-12T00:20:26;100172.72;;;4.58;85.00
55351;BME280;62194;49.480;10.986;2023-02-12T00:20:31;100172.72;;;4.58;84.88
55351;BME280;62194;49.480;10.986;2023-02-12T00:20:37;100174.34;;;4.59;85.20
55351;BME280;62194;49.480;10.986;2023-02-12T00:20:42;100180.53;;;4.59;85.08
55351;BME280;62194;49.480;10.986;2023-02-12T00:20:48;100172.16;;;4.56;84.76
55351;BME280;62194;49.480;10.986;2023-02-12T00:20:53;100176.47;;;4.57;85.21
55351;BME280;62194;49.480;10.986;2023-02-12T00:20:59;100167.03;;;4.59;85.02
55351;BME280;62194;49.480;10.986;2023-02-12T00:21:05;100170.81;;;4.58;84.82
55351;BME280;62194;49.480;10.986;2023-02-12T00:21:14;100175.41;;;4.58;84.99
55351;BME280;62194;49.480;10.986;2023-02-12T00:21:22;100177.84;;;4.59;84.87
55351;BME280;62194;49.480;10.986;2023-02-12T00:21:27;100177.03;;;4.59;84.98
55351;BME280;62194;49.480;10.986;2023-02-12T00:21:33;100171.63;;;4.59;84.73
55351;BME280;62194;49.480;10.986;2023-02-12T00:21:39;100172.16;;;4.56;84.84
55351;BME280;62194;49.480;10.986;2023-02-12T00:21:44;100167.84;;;4.60;85.13
55351;BME280;62194;49.480;10.986;2023-02-12T00:21:50;100178.41;;;4.61;84.90
55351;BME280;62194;49.480;10.986;2023-02-12T00:21:55;100169.75;;;4.59;85.01
55351;BME280;62194;49.480;10.986;2023-02-12T00:22:00;100176.75;;;4.60;85.02
55351;BME280;62194;49.480;10.986;2023-02-12T00:22:06;100177.84;;;4.59;84.84
55351;BME280;62194;49.480;10.986;2023-02-12T00:22:11;100170.00;;;4.58;85.19
55351;BME280;62194;49.480;10.986;2023-02-12T00:22:16;100169.44;;;4.56;84.88
55351;BME280;62194;49.480;10.986;2023-02-12T00:22:21;100174.84;;;4.56;84.79
55351;BME280;62194;49.480;10.986;2023-02-12T00:22:27;100174.03;;;4.55;85.12
55351;BME280;62194;49.480;10.986;2023-02-12T00:22:33;100172.16;;;4.56;85.09
55351;BME280;62194;49.480;10.986;2023-02-12T00:22:38;100179.47;;;4.60;84.76
55351;BME280;62194;49.480;10.986;2023-02-12T00:22:44;100178.94;;;4.58;85.16
55351;BME280;62194;49.480;10.986;2023-02-12T00:22:49;100167.25;;;4.53;85.17
55351;BME280;62194;49.480;10.986;2023-02-12T00:22:54;100178.94;;;4.58;84.94
55351;BME280;62194;49.480;10.986;2023-02-12T00:23:00;100177.28;;;4.57;84.87
55351;BME280;62194;49.480;10.986;2023-02-12T00:23:05;100172.38;;;4.54;85.02
55351;BME280;62194;49.480;10.986;2023-02-12T00:23:11;100179.47;;;4.60;85.22
55351;BME280;62194;49.480;10.986;2023-02-12T00:23:16;100182.97;;;4.61;84.94
55351;BME280;62194;49.480;10.986;2023-02-12T00:23:21;100188.38;;;4.61;85.19
55351;BME280;62194;49.480;10.986;2023-02-12T00:23:27;100177.84;;;4.59;84.56
55351;BME280;62194;49.480;10.986;2023-02-12T00:23:32;100184.63;;;4.62;84.77
55351;BME280;62194;49.480;10.986;2023-02-12T00:23:38;100189.22;;;4.61;84.63
55351;BME280;62194;49.480;10.986;2023-02-12T00:23:45;100175.66;;;4.56;84.96
55351;BME280;62194;49.480;10.986;2023-02-12T00:23:50;100179.97;;;4.57;85.05
55351;BME280;62194;49.480;10.986;2023-02-12T00:23:56;100185.69;;;4.61;84.71
55351;BME280;62194;49.480;10.986;2023-02-12T00:24:09;100192.16;;;4.60;85.03
55351;BME280;62194;49.480;10.986;2023-02-12T00:24:14;100181.06;;;4.56;85.00
55351;BME280;62194;49.480;10.986;2023-02-12T00:24:19;100184.03;;;4.55;84.75
55351;BME280;62194;49.480;10.986;2023-02-12T00:24:25;100181.88;;;4.57;84.78
55351;BME280;62194;49.480;10.986;2023-02-12T00:24:32;100189.47;;;4.60;84.90
55351;BME280;62194;49.480;10.986;2023-02-12T00:24:37;100183.19;;;4.54;85.22
55351;BME280;62194;49.480;10.986;2023-02-12T00:24:42;100185.66;;;4.56;85.14
55351;BME280;62194;49.480;10.986;2023-02-12T00:24:47;100187.78;;;4.54;85.32
55351;BME280;62194;49.480;10.986;2023-02-12T00:24:53;100187.53;;;4.55;85.13
55351;BME280;62194;49.480;10.986;2023-02-12T00:24:58;100186.16;;;4.53;85.41
55351;BME280;62194;49.480;10.986;2023-02-12T00:25:04;100181.00;;;4.51;85.27
55351;BME280;62194;49.480;10.986;2023-02-12T00:25:09;100187.78;;;4.54;85.47
55351;BME280;62194;49.480;10.986;2023-02-12T00:25:14;100189.16;;;4.56;85.32
55351;BME280;62194;49.480;10.986;2023-02-12T00:25:21;100187.84;;;4.59;85.32
55351;BME280;62194;49.480;10.986;2023-02-12T00:25:26;100189.72;;;4.58;85.04
55351;BME280;62194;49.480;10.986;2023-02-12T00:25:32;100185.13;;;4.59;85.08
55351;BME280;62194;49.480;10.986;2023-02-12T00:25:40;100187.06;;;4.63;84.86
55351;BME280;62194;49.480;10.986;2023-02-12T00:25:45;100178.41;;;4.61;84.77
55351;BME280;62194;49.480;10.986;2023-02-12T00:25:50;100188.94;;;4.63;84.80
55351;BME280;62194;49.480;10.986;2023-02-12T00:25:56;100182.72;;;4.62;84.76
55351;BME280;62194;49.480;10.986;2023-02-12T00:26:09;100185.44;;;4.62;85.01
55351;BME280;62194;49.480;10.986;2023-02-12T00:26:18;100185.44;;;4.62;84.96
55351;BME280;62194;49.480;10.986;2023-02-12T00:26:24;100185.44;;;4.62;84.81
55351;BME280;62194;49.480;10.986;2023-02-12T00:26:29;100180.53;;;4.59;84.88
55351;BME280;62194;49.480;10.986;2023-02-12T00:26:35;100177.56;;;4.61;85.01
55351;BME280;62194;49.480;10.986;2023-02-12T00:26:40;100186.25;;;4.63;84.81
55351;BME280;62194;49.480;10.986;2023-02-12T00:26:46;100187.63;;;4.65;84.80
55351;BME280;62194;49.480;10.986;2023-02-12T00:26:52;100184.13;;;4.70;84.81
55351;BME280;62194;49.480;10.986;2023-02-12T00:26:57;100182.00;;;4.72;84.34
55351;BME280;62194;49.480;10.986;2023-02-12T00:27:03;100190.69;;;4.74;84.28
55351;BME280;62194;49.480;10.986;2023-02-12T00:27:08;100182.28;;;4.76;84.03
55351;BME280;62194;49.480;10.986;2023-02-12T00:27:13;100180.69;;;4.75;84.20
55351;BME280;62194;49.480;10.986;2023-02-12T00:27:18;100179.59;;;4.76;84.11
55351;BME280;62194;49.480;10.986;2023-02-12T00:27:24;100180.41;;;4.76;84.06
55351;BME280;62194;49.480;10.986;2023-02-12T00:27:34;100185.00;;;4.76;83.74
55351;BME280;62194;49.480;10.986;2023-02-12T00:27:39;100173.91;;;4.72;83.70
55351;BME280;62194;49.480;10.986;2023-02-12T00:27:45;100179.59;;;4.76;83.79
55351;BME280;62194;49.480;10.986;2023-02-12T00:27:50;100178.22;;;4.73;83.99
55351;BME280;62194;49.480;10.986;2023-02-12T00:27:55;100179.88;;;4.74;83.80
55351;BME280;62194;49.480;10.986;2023-02-12T00:28:01;100187.69;;;4.76;83.73
55351;BME280;62194;49.480;10.986;2023-02-12T00:28:06;100179.28;;;4.72;83.86
55351;BME280;62194;49.480;10.986;2023-02-12T00:28:12;100172.00;;;4.73;84.23
55351;BME280;62194;49.480;10.986;2023-02-12T00:28:17;100184.19;;;4.75;83.79
55351;BME280;62194;49.480;10.986;2023-02-12T00:28:22;100176.59;;;4.72;83.92
55351;BME280;62194;49.480;10.986;2023-02-12T00:28:28;100174.97;;;4.71;83.57
55351;BME280;62194;49.480;10.986;2023-02-12T00:28:33;100181.50;;;4.75;83.96
55351;BME280;62194;49.480;10.986;2023-02-12T00:28:39;100180.09;;;4.73;83.58
55351;BME280;62194;49.480;10.986;2023-02-12T00:28:45;100183.63;;;4.73;83.93
55351;BME280;62194;49.480;10.986;2023-02-12T00:28:51;100177.69;;;4.71;83.94
55351;BME280;62194;49.480;10.986;2023-02-12T00:28:56;100168.50;;;4.72;84.04
55351;BME280;62194;49.480;10.986;2023-02-12T00:29:01;100177.97;;;4.75;83.96
55351;BME280;62194;49.480;10.986;2023-02-12T00:29:09;100173.09;;;4.72;83.93
55351;BME280;62194;49.480;10.986;2023-02-12T00:29:15;100175.50;;;4.73;83.82
55351;BME280;62194;49.480;10.986;2023-02-12T00:29:20;100178.50;;;4.72;83.84
55351;BME280;62194;49.480;10.986;2023-02-12T00:29:25;100181.19;;;4.72;83.96
55351;BME280;62194;49.480;10.986;2023-02-12T00:29:31;100175.78;;;4.72;84.21
55351;BME280;62194;49.480;10.986;2023-02-12T00:29:36;100172.53;;;4.69;83.90
55351;BME280;62194;49.480;10.986;2023-02-12T00:29:42;100181.72;;;4.68;84.00
55351;BME280;62194;49.480;10.986;2023-02-12T00:29:47;100180.06;;;4.67;84.16
55351;BME280;62194;49.480;10.986;2023-02-12T00:29:52;100180.38;;;4.71;84.14
55351;BME280;62194;49.480;10.986;2023-02-12T00:29:58;100174.94;;;4.66;84.00
55351;BME280;62194;49.480;10.986;2023-02-12T00:30:03;100169.78;;;4.64;84.47
55351;BME280;62194;49.480;10.986;2023-02-12T00:30:09;100181.72;;;4.68;84.27
55351;BME280;62194;49.480;10.986;2023-02-12T00:30:15;100169.53;;;4.66;84.40
55351;BME280;62194;49.480;10.986;2023-02-12T00:30:20;100168.44;;;4.67;84.34
55351;BME280;62194;49.480;10.986;2023-02-12T00:30:25;100180.91;;;4.68;84.40
55351;BME280;62194;49.480;10.986;2023-02-12T00:30:31;100178.72;;;4.70;84.68
55351;BME280;62194;49.480;10.986;2023-02-12T00:30:36;100173.84;;;4.67;84.43
55351;BME280;62194;49.480;10.986;2023-02-12T00:30:41;100176.84;;;4.70;84.07